• Join FlightAware (Why Join?)
  • Login
  • US Flag 
11:28AM EDT


 

Airport Tracker/Info


-or-


 

Live Flight TrackerFlight Track Log ✈ N443PA ✈ 28-Apr-2013 ✈ KTUS - KSDL

Flight Track Log - Related Links

Times and Time Zones

All times are in EDT time to prevent confusion due to time zone crossing. See the N443PA flight status page for this flight to view local times or setup timezone preferences in your user account.

Time Position Orientation Groundspeed Altitude Reporting Facility
EDT Latitude Longitude Course Direction KTS MPH feet Rate Location/Type
08:47PM 32.1150 -110.9619 336° Northwest 77 89 2,900  Level Albuquerque Center
08:52PM 32.2160 -111.0140 334° Northwest 70 81 5,500 480 Climbing FlightAware
08:53PM 32.2280 -111.0200 337° Northwest 73 84 5,900 480 Climbing FlightAware
08:53PM 32.2380 -111.0250 337° Northwest 71 82 6,100 480 Climbing FlightAware
08:54PM 32.2440 -111.0280 337° Northwest 69 79 6,300 300 Climbing FlightAware
08:54PM 32.2550 -111.0330 339° North 74 85 6,400 180 Climbing FlightAware
08:55PM 32.2640 -111.0380 335° Northwest 72 83 6,500 60 Climbing FlightAware
08:56PM 32.2920 -111.0530 336° Northwest 77 89 6,600  Climbing FlightAware
08:57PM 32.3020 -111.0600 329° Northwest 92 106  Descending FlightAware
08:57PM 32.3140 -111.0680 331° Northwest 95 109 660 Level FlightAware
08:58PM 32.3250 -111.0710 347° North 101 116 660 Level FlightAware
08:58PM 32.3380 -111.0740 349° North 94 108 720 Level FlightAware
08:59PM 32.3480 -111.0760 350° North 93 107 780 Level FlightAware
08:59PM 32.3620 -111.0790 350° North 97 112 780 Level FlightAware
09:00PM 32.3750 -111.0820 349° North 100 115 840 Level FlightAware
09:00PM 32.3860 -111.0850 347° North 98 113 900 Level FlightAware
09:00PM 32.3990 -111.0890 345° North 97 112 960 Level FlightAware
09:01PM 32.4100 -111.0920 347° North 93 107 1,080 Level FlightAware
09:01PM 32.4230 -111.0960 345° North 96 110 1,140 Level FlightAware
09:02PM 32.4350 -111.1040 331° Northwest 100 115 1,260 Level FlightAware
09:02PM 32.4450 -111.1100 333° Northwest 99 114 1,440 Level FlightAware
09:03PM 32.4570 -111.1170 334° Northwest 89 102 1,560 Level FlightAware
09:03PM 32.4680 -111.1220 339° North 97 112 1,800 Level FlightAware
09:04PM 32.4800 -111.1280 337° Northwest 99 114 1,980 Level FlightAware
09:04PM 32.4900 -111.1330 337° Northwest 93 107 2,400 Level FlightAware
09:05PM 32.5020 -111.1400 334° Northwest 98 113 2,820 Level FlightAware
09:05PM 32.5140 -111.1480 331° Northwest 95 109 3,600 Level FlightAware
09:06PM 32.5240 -111.1540 333° Northwest 98 113 4,920 Level FlightAware
09:06PM 32.5360 -111.1620 331° Northwest 96 110 7,200 Level FlightAware
09:06PM 32.5460 -111.1670 337° Northwest 89 102 6,600 7,200 Climbing FlightAware
09:07PM 32.5570 -111.1740 332° Northwest 95 109 6,600  Level FlightAware
09:07PM 32.5680 -111.1800 335° Northwest 91 105 6,600  Level FlightAware
09:08PM 32.5800 -111.1880 331° Northwest 91 105 6,600  Level FlightAware
09:08PM 32.5860 -111.1910 337° Northwest 91 105 6,600 -180 Level FlightAware
09:09PM 32.5960 -111.1970 333° Northwest 91 105 6,500  Descending FlightAware
09:09PM 32.6080 -111.2040 334° Northwest 93 107 6,600 60 Climbing FlightAware
09:10PM 32.6190 -111.2110 332° Northwest 92 106 6,600 60 Level FlightAware
09:10PM 32.6290 -111.2170 333° Northwest 97 112 6,700 60 Climbing FlightAware
09:10PM 32.6410 -111.2270 325° Northwest 94 108 6,700 -240 Level FlightAware
09:11PM 32.6500 -111.2360 320° Northwest 83 96 6,500 -240 Descending FlightAware
09:11PM 32.6580 -111.2420 328° Northwest 93 107 6,500  Level FlightAware
09:12PM 32.6640 -111.2460 331° Northwest 93 107 6,500 120 Level FlightAware
09:12PM 32.6760 -111.2560 325° Northwest 86 99 6,600  Climbing FlightAware
09:13PM 32.6850 -111.2640 323° Northwest 98 113 6,500  Descending FlightAware
09:13PM 32.6960 -111.2730 325° Northwest 96 110 6,600 60 Climbing FlightAware
09:13PM 32.7050 -111.2810 323° Northwest 94 108 6,600  Level FlightAware
09:14PM 32.7160 -111.2920 320° Northwest 101 116 6,600 -120 Level FlightAware
09:14PM 32.7250 -111.3020 317° Northwest 100 115 6,500 -180 Descending FlightAware
09:15PM 32.7290 -111.3060 320° Northwest 89 102 6,500  Level FlightAware
09:15PM 32.7360 -111.3120 324° Northwest 84 97 6,500 60 Level FlightAware
09:16PM 32.7480 -111.3210 328° Northwest 87 100 6,600 60 Climbing FlightAware
09:16PM 32.7590 -111.3310 323° Northwest 96 110 6,600 -180 Level FlightAware
09:16PM 32.7660 -111.3330 346° North 96 110 6,500 -240 Descending FlightAware
09:17PM 32.7730 -111.3340 353° North 100 115 6,500  Level FlightAware
09:17PM 32.7850 -111.3360 352° North 103 119 6,500 -180 Level FlightAware
09:17PM 32.7880 -111.3370 344° North 106 122 6,400 -180 Descending FlightAware
09:18PM 32.7990 -111.3410 343° North 106 122 6,400 60 Level FlightAware
09:20PM 32.8660 -111.3620 345° North 6,700 60 Climbing FlightAware
09:20PM 32.8750 -111.3660 340° North 106 122 6,600 -540 Descending FlightAware
09:21PM 32.8970 -111.3740 343° North 100 115 6,100 -1,020 Descending FlightAware
09:22PM 32.9253 -111.3814 343° North 111 128 4,900 -300 Descending Albuquerque Center
09:28PM 33.0980 -111.4300 343° North 101 116 -120 Descending FlightAware
09:29PM 33.1100 -111.4330 348° North 101 116 4,200 Level FlightAware
09:29PM 33.1256 -111.4378 348° North 106 122 4,100 2,220 Climbing Albuquerque Center
09:30PM 33.1442 -111.4608 314° West 95 109 3,400 -420 Descending Albuquerque Center
09:31PM 33.1625 -111.4839 314° West 95 109 3,300  Descending Albuquerque Center
09:32PM 33.1811 -111.5053 316° Northwest 95 109 3,400  Climbing Albuquerque Center
09:33PM 33.2011 -111.5286 316° Northwest 99 114 3,300 -60 Descending Albuquerque Center
09:34PM 33.2200 -111.5508 315° West 97 112 3,300 -240 Level Albuquerque Center
09:35PM 33.2386 -111.5728 315° West 97 112 2,900 -480 Descending Albuquerque Center
09:36PM 33.2614 -111.5989 316° Northwest 97 112 2,400 -540 Descending Albuquerque Center
09:42PM 33.3710 -111.6780 316° Northwest 95 109 -480 Descending FlightAware
09:42PM 33.3800 -111.6820 340° North 96 110  Level FlightAware
09:43PM 33.3930 -111.6860 346° North 96 110  Level FlightAware
09:43PM 33.4040 -111.6910 339° North 96 110  Level FlightAware
09:44PM 33.4170 -111.6960 342° North 91 105  Level FlightAware
09:44PM 33.4230 -111.6980 344° North 93 107  Level FlightAware
09:45PM 33.4340 -111.7030 339° North 97 112  Level FlightAware
09:45PM 33.4450 -111.7090 336° Northwest 99 114  Level FlightAware
09:46PM 33.4590 -111.7140 343° North 102 117  Level FlightAware
09:46PM 33.4640 -111.7170 333° Northwest 102 117  Level FlightAware
09:46PM 33.4730 -111.7220 335° Northwest 102 117  Level FlightAware
09:47PM 33.4870 -111.7360 320° Northwest 99 114  Level FlightAware
09:47PM 33.4950 -111.7450 317° Northwest 97 112  Level FlightAware
09:48PM 33.5060 -111.7570 318° Northwest 101 116  Level FlightAware
09:48PM 33.5140 -111.7670 314° West 108 124  Level FlightAware